sensor_id;sensor_type;location;lat;lon;timestamp;temperature;humidity
74923;HTU21D;64715;44.760;37.678;2023-02-08T00:00:10;-4.66;82.13
74923;HTU21D;64715;44.760;37.678;2023-02-08T00:01:13;-4.65;82.07
74923;HTU21D;64715;44.760;37.678;2023-02-08T00:02:14;-4.67;81.91
74923;HTU21D;64715;44.760;37.678;2023-02-08T00:03:15;-4.67;82.25
74923;HTU21D;64715;44.760;37.678;2023-02-08T00:04:16;-4.68;82.20
74923;HTU21D;64715;44.760;37.678;2023-02-08T00:05:18;-4.68;82.40
74923;HTU21D;64715;44.760;37.678;2023-02-08T00:06:19;-4.66;82.17
74923;HTU21D;64715;44.760;37.678;2023-02-08T00:07:20;-4.67;82.08
74923;HTU21D;64715;44.760;37.678;2023-02-08T00:08:21;-4.67;82.00
74923;HTU21D;64715;44.760;37.678;2023-02-08T00:09:23;-4.63;81.72
74923;HTU21D;64715;44.760;37.678;2023-02-08T00:10:24;-4.65;81.84
74923;HTU21D;64715;44.760;37.678;2023-02-08T00:11:25;-4.63;81.68
74923;HTU21D;64715;44.760;37.678;2023-02-08T00:12:27;-4.63;81.71
74923;HTU21D;64715;44.760;37.678;2023-02-08T00:13:28;-4.59;81.84
74923;HTU21D;64715;44.760;37.678;2023-02-08T00:14:29;-4.61;81.54
74923;HTU21D;64715;44.760;37.678;2023-02-08T00:15:30;-4.60;81.75
74923;HTU21D;64715;44.760;37.678;2023-02-08T00:16:31;-4.61;81.82
74923;HTU21D;64715;44.760;37.678;2023-02-08T00:17:32;-4.60;81.94
74923;HTU21D;64715;44.760;37.678;2023-02-08T00:18:33;-4.60;81.42
74923;HTU21D;64715;44.760;37.678;2023-02-08T00:19:34;-4.61;81.63
74923;HTU21D;64715;44.760;37.678;2023-02-08T00:20:37;-4.60;81.75
74923;HTU21D;64715;44.760;37.678;2023-02-08T00:21:39;-4.60;82.15
74923;HTU21D;64715;44.760;37.678;2023-02-08T00:22:40;-4.59;82.04
74923;HTU21D;64715;44.760;37.678;2023-02-08T00:23:42;-4.63;82.10
74923;HTU21D;64715;44.760;37.678;2023-02-08T00:24:43;-4.59;81.97
74923;HTU21D;64715;44.760;37.678;2023-02-08T00:25:44;-4.60;82.32
74923;HTU21D;64715;44.760;37.678;2023-02-08T00:26:45;-4.60;82.33
74923;HTU21D;64715;44.760;37.678;2023-02-08T00:27:47;-4.60;82.30
74923;HTU21D;64715;44.760;37.678;2023-02-08T00:28:48;-4.61;82.42
74923;HTU21D;64715;44.760;37.678;2023-02-08T00:29:51;-4.60;82.21
74923;HTU21D;64715;44.760;37.678;2023-02-08T00:30:52;-4.60;82.32
74923;HTU21D;64715;44.760;37.678;2023-02-08T00:31:53;-4.60;82.49
74923;HTU21D;64715;44.760;37.678;2023-02-08T00:32:54;-4.61;82.52
74923;HTU21D;64715;44.760;37.678;2023-02-08T00:33:55;-4.61;82.56
74923;HTU21D;64715;44.760;37.678;2023-02-08T00:34:56;-4.59;82.18
74923;HTU21D;64715;44.760;37.678;2023-02-08T00:36:01;-4.58;82.52
74923;HTU21D;64715;44.760;37.678;2023-02-08T00:37:04;-4.58;82.29
74923;HTU21D;64715;44.760;37.678;2023-02-08T00:38:06;-4.57;82.53
74923;HTU21D;64715;44.760;37.678;2023-02-08T00:39:06;-4.57;82.53
74923;HTU21D;64715;44.760;37.678;2023-02-08T00:40:08;-4.56;82.16
74923;HTU21D;64715;44.760;37.678;2023-02-08T00:41:09;-4.54;82.11
74923;HTU21D;64715;44.760;37.678;2023-02-08T00:42:10;-4.53;81.97
74923;HTU21D;64715;44.760;37.678;2023-02-08T00:43:12;-4.52;82.08
74923;HTU21D;64715;44.760;37.678;2023-02-08T00:44:13;-4.51;82.10
74923;HTU21D;64715;44.760;37.678;2023-02-08T00:45:14;-4.51;81.92
74923;HTU21D;64715;44.760;37.678;2023-02-08T00:46:15;-4.49;81.97
74923;HTU21D;64715;44.760;37.678;2023-02-08T00:47:16;-4.49;82.06
74923;HTU21D;64715;44.760;37.678;2023-02-08T00:48:17;-4.46;82.10
74923;HTU21D;64715;44.760;37.678;2023-02-08T00:49:18;-4.45;81.86
74923;HTU21D;64715;44.760;37.678;2023-02-08T00:50:19;-4.45;81.66
74923;HTU21D;64715;44.760;37.678;2023-02-08T00:51:21;-4.44;81.76
74923;HTU21D;64715;44.760;37.678;2023-02-08T00:52:23;-4.44;82.10
74923;HTU21D;64715;44.760;37.678;2023-02-08T00:53:24;-4.44;81.81
74923;HTU21D;64715;44.760;37.678;2023-02-08T00:54:25;-4.40;81.43
74923;HTU21D;64715;44.760;37.678;2023-02-08T00:55:26;-4.41;81.73
74923;HTU21D;64715;44.760;37.678;2023-02-08T00:56:27;-4.39;81.59
74923;HTU21D;64715;44.760;37.678;2023-02-08T00:57:28;-4.39;81.52
74923;HTU21D;64715;44.760;37.678;2023-02-08T01:00:35;-4.42;81.70
74923;HTU21D;64715;44.760;37.678;2023-02-08T01:01:40;-4.42;81.84
74923;HTU21D;64715;44.760;37.678;2023-02-08T01:02:42;-4.44;81.83
74923;HTU21D;64715;44.760;37.678;2023-02-08T01:03:44;-4.45;82.12
74923;HTU21D;64715;44.760;37.678;2023-02-08T01:04:47;-4.45;81.73
74923;HTU21D;64715;44.760;37.678;2023-02-08T01:05:48;-4.44;81.99
74923;HTU21D;64715;44.760;37.678;2023-02-08T01:06:50;-4.45;81.73
74923;HTU21D;64715;44.760;37.678;2023-02-08T01:07:50;-4.44;81.46
74923;HTU21D;64715;44.760;37.678;2023-02-08T01:08:51;-4.43;81.65
74923;HTU21D;64715;44.760;37.678;2023-02-08T01:09:52;-4.43;81.54
74923;HTU21D;64715;44.760;37.678;2023-02-08T01:11:08;-4.44;81.53
74923;HTU21D;64715;44.760;37.678;2023-02-08T01:12:10;-4.45;81.74
74923;HTU21D;64715;44.760;37.678;2023-02-08T01:13:13;-4.46;81.46
74923;HTU21D;64715;44.760;37.678;2023-02-08T01:14:14;-4.46;81.51
74923;HTU21D;64715;44.760;37.678;2023-02-08T01:15:15;-4.48;81.36
74923;HTU21D;64715;44.760;37.678;2023-02-08T01:16:19;-4.48;81.60
74923;HTU21D;64715;44.760;37.678;2023-02-08T01:17:20;-4.49;81.49
74923;HTU21D;64715;44.760;37.678;2023-02-08T01:18:21;-4.51;81.48
74923;HTU21D;64715;44.760;37.678;2023-02-08T01:19:22;-4.48;81.46
74923;HTU21D;64715;44.760;37.678;2023-02-08T01:20:24;-4.50;81.46
74923;HTU21D;64715;44.760;37.678;2023-02-08T01:21:31;-4.51;81.44
74923;HTU21D;64715;44.760;37.678;2023-02-08T01:22:33;-4.52;81.33
74923;HTU21D;64715;44.760;37.678;2023-02-08T01:23:35;-4.52;81.25
74923;HTU21D;64715;44.760;37.678;2023-02-08T01:24:36;-4.53;81.12
74923;HTU21D;64715;44.760;37.678;2023-02-08T01:25:37;-4.54;81.30
74923;HTU21D;64715;44.760;37.678;2023-02-08T01:26:39;-4.53;81.07
74923;HTU21D;64715;44.760;37.678;2023-02-08T01:27:40;-4.54;81.27
74923;HTU21D;64715;44.760;37.678;2023-02-08T01:28:59;-4.55;81.55
74923;HTU21D;64715;44.760;37.678;2023-02-08T01:30:00;-4.57;81.38
74923;HTU21D;64715;44.760;37.678;2023-02-08T01:31:06;-4.56;81.41
74923;HTU21D;64715;44.760;37.678;2023-02-08T01:32:07;-4.57;81.22
74923;HTU21D;64715;44.760;37.678;2023-02-08T01:35:50;-4.66;81.36
74923;HTU21D;64715;44.760;37.678;2023-02-08T01:36:52;-4.67;81.26
74923;HTU21D;64715;44.760;37.678;2023-02-08T01:37:53;-4.70;81.62
74923;HTU21D;64715;44.760;37.678;2023-02-08T01:38:54;-4.71;81.72
74923;HTU21D;64715;44.760;37.678;2023-02-08T01:39:58;-4.71;81.84
74923;HTU21D;64715;44.760;37.678;2023-02-08T01:42:50;-4.73;81.68
74923;HTU21D;64715;44.760;37.678;2023-02-08T01:45:22;-4.73;81.62
74923;HTU21D;64715;44.760;37.678;2023-02-08T01:46:23;-4.75;81.59
74923;HTU21D;64715;44.760;37.678;2023-02-08T01:49:35;-4.76;81.55
74923;HTU21D;64715;44.760;37.678;2023-02-08T01:50:45;-4.79;81.67
74923;HTU21D;64715;44.760;37.678;2023-02-08T01:51:55;-4.80;81.83
74923;HTU21D;64715;44.760;37.678;2023-02-08T01:53:05;-4.81;81.68
74923;HTU21D;64715;44.760;37.678;2023-02-08T01:54:09;-4.84;81.79
74923;HTU21D;64715;44.760;37.678;2023-02-08T01:58:07;-4.90;81.93
74923;HTU21D;64715;44.760;37.678;2023-02-08T02:04:00;-5.02;82.17
74923;HTU21D;64715;44.760;37.678;2023-02-08T02:05:02;-5.04;81.87
74923;HTU21D;64715;44.760;37.678;2023-02-08T02:08:19;-5.08;82.37
74923;HTU21D;64715;44.760;37.678;2023-02-08T02:10:08;-5.09;82.52
74923;HTU21D;64715;44.760;37.678;2023-02-08T02:11:08;-5.11;82.26
74923;HTU21D;64715;44.760;37.678;2023-02-08T02:12:34;-5.09;81.92
74923;HTU21D;64715;44.760;37.678;2023-02-08T02:13:36;-5.11;82.20
74923;HTU21D;64715;44.760;37.678;2023-02-08T02:14:39;-5.10;81.91
74923;HTU21D;64715;44.760;37.678;2023-02-08T02:15:41;-5.08;82.28
74923;HTU21D;64715;44.760;37.678;2023-02-08T02:30:15;-5.22;82.44
74923;HTU21D;64715;44.760;37.678;2023-02-08T02:38:53;-5.19;82.31
74923;HTU21D;64715;44.760;37.678;2023-02-08T02:40:33;-5.17;82.25
74923;HTU21D;64715;44.760;37.678;2023-02-08T02:42:00;-5.17;82.17
74923;HTU21D;64715;44.760;37.678;2023-02-08T02:45:21;-5.17;82.37
74923;HTU21D;64715;44.760;37.678;2023-02-08T02:48:12;-5.19;82.26
74923;HTU21D;64715;44.760;37.678;2023-02-08T02:49:26;-5.17;82.07
74923;HTU21D;64715;44.760;37.678;2023-02-08T02:50:39;-5.16;82.11
74923;HTU21D;64715;44.760;37.678;2023-02-08T02:53:20;-5.14;82.07
74923;HTU21D;64715;44.760;37.678;2023-02-08T02:54:34;-5.12;82.02
74923;HTU21D;64715;44.760;37.678;2023-02-08T02:55:44;-5.11;82.04
74923;HTU21D;64715;44.760;37.678;2023-02-08T02:56:50;-5.11;82.20
74923;HTU21D;64715;44.760;37.678;2023-02-08T03:00:30;-5.11;82.17
74923;HTU21D;64715;44.760;37.678;2023-02-08T03:01:32;-5.10;82.04
74923;HTU21D;64715;44.760;37.678;2023-02-08T03:05:14;-5.12;81.77
74923;HTU21D;64715;44.760;37.678;2023-02-08T03:10:08;-5.17;81.72
74923;HTU21D;64715;44.760;37.678;2023-02-08T03:11:17;-5.18;81.71
74923;HTU21D;64715;44.760;37.678;2023-02-08T03:12:45;-5.22;81.86
74923;HTU21D;64715;44.760;37.678;2023-02-08T03:18:25;-5.19;82.11
74923;HTU21D;64715;44.760;37.678;2023-02-08T03:19:35;-5.18;81.99
74923;HTU21D;64715;44.760;37.678;2023-02-08T03:20:42;-5.18;81.97
74923;HTU21D;64715;44.760;37.678;2023-02-08T03:23:42;-5.18;81.62
74923;HTU21D;64715;44.760;37.678;2023-02-08T03:24:58;-5.15;81.62
74923;HTU21D;64715;44.760;37.678;2023-02-08T03:26:37;-5.16;81.64
74923;HTU21D;64715;44.760;37.678;2023-02-08T03:28:12;-5.17;81.29
74923;HTU21D;64715;44.760;37.678;2023-02-08T03:30:34;-5.17;81.26
74923;HTU21D;64715;44.760;37.678;2023-02-08T03:33:24;-5.17;81.16
74923;HTU21D;64715;44.760;37.678;2023-02-08T03:34:35;-5.17;80.79
74923;HTU21D;64715;44.760;37.678;2023-02-08T03:35:44;-5.17;80.68
74923;HTU21D;64715;44.760;37.678;2023-02-08T03:36:58;-5.17;80.91
74923;HTU21D;64715;44.760;37.678;2023-02-08T03:38:07;-5.18;80.75
74923;HTU21D;64715;44.760;37.678;2023-02-08T03:39:12;-5.16;80.78
74923;HTU21D;64715;44.760;37.678;2023-02-08T03:40:17;-5.15;80.65
74923;HTU21D;64715;44.760;37.678;2023-02-08T03:41:25;-5.15;79.90
74923;HTU21D;64715;44.760;37.678;2023-02-08T03:42:29;-5.15;80.29
74923;HTU21D;64715;44.760;37.678;2023-02-08T03:46:30;-5.15;79.31
74923;HTU21D;64715;44.760;37.678;2023-02-08T03:49:43;-5.25;79.72
74923;HTU21D;64715;44.760;37.678;2023-02-08T03:50:48;-5.26;79.90
74923;HTU21D;64715;44.760;37.678;2023-02-08T03:51:51;-5.27;79.49
74923;HTU21D;64715;44.760;37.678;2023-02-08T03:52:54;-5.28;79.37
74923;HTU21D;64715;44.760;37.678;2023-02-08T03:53:57;-5.29;79.47
74923;HTU21D;64715;44.760;37.678;2023-02-08T03:55:04;-5.30;79.54
74923;HTU21D;64715;44.760;37.678;2023-02-08T03:58:48;-5.31;79.53
74923;HTU21D;64715;44.760;37.678;2023-02-08T04:00:06;-5.34;79.25
74923;HTU21D;64715;44.760;37.678;2023-02-08T04:01:19;-5.35;79.50
74923;HTU21D;64715;44.760;37.678;2023-02-08T04:04:46;-5.41;80.00
74923;HTU21D;64715;44.760;37.678;2023-02-08T04:05:48;-5.44;79.86
74923;HTU21D;64715;44.760;37.678;2023-02-08T04:06:49;-5.45;80.07
74923;HTU21D;64715;44.760;37.678;2023-02-08T04:07:51;-5.45;80.14
74923;HTU21D;64715;44.760;37.678;2023-02-08T04:08:52;-5.43;80.22
74923;HTU21D;64715;44.760;37.678;2023-02-08T04:09:53;-5.43;80.21
74923;HTU21D;64715;44.760;37.678;2023-02-08T04:10:54;-5.40;80.14
74923;HTU21D;64715;44.760;37.678;2023-02-08T04:11:56;-5.40;80.11
74923;HTU21D;64715;44.760;37.678;2023-02-08T04:13:22;-5.39;79.97
74923;HTU21D;64715;44.760;37.678;2023-02-08T04:14:23;-5.38;79.94
74923;HTU21D;64715;44.760;37.678;2023-02-08T04:20:15;-5.48;79.27
74923;HTU21D;64715;44.760;37.678;2023-02-08T04:21:16;-5.49;79.34
74923;HTU21D;64715;44.760;37.678;2023-02-08T04:22:17;-5.53;79.63
74923;HTU21D;64715;44.760;37.678;2023-02-08T04:23:18;-5.56;79.82
74923;HTU21D;64715;44.760;37.678;2023-02-08T04:24:19;-5.53;79.99
74923;HTU21D;64715;44.760;37.678;2023-02-08T04:27:01;-5.55;80.36
74923;HTU21D;64715;44.760;37.678;2023-02-08T04:28:02;-5.54;80.33
74923;HTU21D;64715;44.760;37.678;2023-02-08T04:29:28;-5.54;80.15
74923;HTU21D;64715;44.760;37.678;2023-02-08T04:30:29;-5.54;80.33
74923;HTU21D;64715;44.760;37.678;2023-02-08T04:31:30;-5.53;80.23
74923;HTU21D;64715;44.760;37.678;2023-02-08T04:32:31;-5.53;80.51
74923;HTU21D;64715;44.760;37.678;2023-02-08T04:33:32;-5.53;80.44
74923;HTU21D;64715;44.760;37.678;2023-02-08T04:34:33;-5.53;80.38
74923;HTU21D;64715;44.760;37.678;2023-02-08T04:35:34;-5.50;80.49
74923;HTU21D;64715;44.760;37.678;2023-02-08T04:36:35;-5.52;80.36
74923;HTU21D;64715;44.760;37.678;2023-02-08T04:37:36;-5.49;80.36
74923;HTU21D;64715;44.760;37.678;2023-02-08T04:40:40;-5.52;80.01
74923;HTU21D;64715;44.760;37.678;2023-02-08T04:41:41;-5.54;80.08
74923;HTU21D;64715;44.760;37.678;2023-02-08T04:42:42;-5.55;80.02
74923;HTU21D;64715;44.760;37.678;2023-02-08T04:44:02;-5.58;80.17
74923;HTU21D;64715;44.760;37.678;2023-02-08T04:45:03;-5.60;80.07
74923;HTU21D;64715;44.760;37.678;2023-02-08T04:46:05;-5.63;80.11
74923;HTU21D;64715;44.760;37.678;2023-02-08T04:47:06;-5.64;80.31
74923;HTU21D;64715;44.760;37.678;2023-02-08T04:48:07;-5.65;80.36
74923;HTU21D;64715;44.760;37.678;2023-02-08T04:49:09;-5.68;80.37
74923;HTU21D;64715;44.760;37.678;2023-02-08T04:50:10;-5.69;80.31
74923;HTU21D;64715;44.760;37.678;2023-02-08T04:51:11;-5.68;80.37
74923;HTU21D;64715;44.760;37.678;2023-02-08T04:52:12;-5.69;80.10
74923;HTU21D;64715;44.760;37.678;2023-02-08T04:53:14;-5.70;80.21
74923;HTU21D;64715;44.760;37.678;2023-02-08T04:54:14;-5.71;80.24
74923;HTU21D;64715;44.760;37.678;2023-02-08T04:55:15;-5.71;80.11
74923;HTU21D;64715;44.760;37.678;2023-02-08T04:56:16;-5.70;80.27
74923;HTU21D;64715;44.760;37.678;2023-02-08T04:57:18;-5.72;80.34
74923;HTU21D;64715;44.760;37.678;2023-02-08T04:58:19;-5.70;80.20
74923;HTU21D;64715;44.760;37.678;2023-02-08T04:59:20;-5.73;80.28
74923;HTU21D;64715;44.760;37.678;2023-02-08T05:00:21;-5.73;80.04
74923;HTU21D;64715;44.760;37.678;2023-02-08T05:01:22;-5.74;80.22
74923;HTU21D;64715;44.760;37.678;2023-02-08T05:02:23;-5.76;79.95
74923;HTU21D;64715;44.760;37.678;2023-02-08T05:03:24;-5.75;80.19
74923;HTU21D;64715;44.760;37.678;2023-02-08T05:04:24;-5.75;80.12
74923;HTU21D;64715;44.760;37.678;2023-02-08T05:05:26;-5.74;80.09
74923;HTU21D;64715;44.760;37.678;2023-02-08T05:06:28;-5.75;80.20
74923;HTU21D;64715;44.760;37.678;2023-02-08T05:07:29;-5.77;80.11
74923;HTU21D;64715;44.760;37.678;2023-02-08T05:08:30;-5.78;80.36
74923;HTU21D;64715;44.760;37.678;2023-02-08T05:09:31;-5.76;80.24
74923;HTU21D;64715;44.760;37.678;2023-02-08T05:10:32;-5.77;80.24
74923;HTU21D;64715;44.760;37.678;2023-02-08T05:11:33;-5.76;80.35
74923;HTU21D;64715;44.760;37.678;2023-02-08T05:12:34;-5.75;79.88
74923;HTU21D;64715;44.760;37.678;2023-02-08T05:13:35;-5.78;79.88
74923;HTU21D;64715;44.760;37.678;2023-02-08T05:14:36;-5.77;79.65
74923;HTU21D;64715;44.760;37.678;2023-02-08T05:15:37;-5.79;79.85
74923;HTU21D;64715;44.760;37.678;2023-02-08T05:16:38;-5.79;79.91
74923;HTU21D;64715;44.760;37.678;2023-02-08T05:17:39;-5.81;79.84
74923;HTU21D;64715;44.760;37.678;2023-02-08T05:18:40;-5.79;79.75
74923;HTU21D;64715;44.760;37.678;2023-02-08T05:19:42;-5.81;79.84
74923;HTU21D;64715;44.760;37.678;2023-02-08T05:20:43;-5.78;79.66
74923;HTU21D;64715;44.760;37.678;2023-02-08T05:21:44;-5.81;79.69
74923;HTU21D;64715;44.760;37.678;2023-02-08T05:22:45;-5.82;79.64
74923;HTU21D;64715;44.760;37.678;2023-02-08T05:23:46;-5.83;79.74
74923;HTU21D;64715;44.760;37.678;2023-02-08T05:24:47;-5.85;79.78
74923;HTU21D;64715;44.760;37.678;2023-02-08T05:25:48;-5.86;79.78
74923;HTU21D;64715;44.760;37.678;2023-02-08T05:26:49;-5.84;79.85
74923;HTU21D;64715;44.760;37.678;2023-02-08T05:27:50;-5.86;79.88
74923;HTU21D;64715;44.760;37.678;2023-02-08T05:28:51;-5.84;79.68
74923;HTU21D;64715;44.760;37.678;2023-02-08T05:29:52;-5.86;79.53
74923;HTU21D;64715;44.760;37.678;2023-02-08T05:33:39;-5.94;79.68
74923;HTU21D;64715;44.760;37.678;2023-02-08T05:37:57;-6.09;79.32
74923;HTU21D;64715;44.760;37.678;2023-02-08T05:38:58;-6.15;79.71
74923;HTU21D;64715;44.760;37.678;2023-02-08T05:42:02;-6.19;79.82
74923;HTU21D;64715;44.760;37.678;2023-02-08T05:43:03;-6.23;79.97
74923;HTU21D;64715;44.760;37.678;2023-02-08T05:44:04;-6.23;80.09
74923;HTU21D;64715;44.760;37.678;2023-02-08T05:45:05;-6.23;79.95
74923;HTU21D;64715;44.760;37.678;2023-02-08T05:46:07;-6.22;80.12
74923;HTU21D;64715;44.760;37.678;2023-02-08T05:47:08;-6.23;79.83
74923;HTU21D;64715;44.760;37.678;2023-02-08T05:48:10;-6.19;79.74
74923;HTU21D;64715;44.760;37.678;2023-02-08T05:49:11;-6.21;80.12
74923;HTU21D;64715;44.760;37.678;2023-02-08T05:52:45;-6.19;79.89
74923;HTU21D;64715;44.760;37.678;2023-02-08T05:53:46;-6.22;79.93
74923;HTU21D;64715;44.760;37.678;2023-02-08T05:54:47;-6.22;79.88
74923;HTU21D;64715;44.760;37.678;2023-02-08T05:55:48;-6.22;80.04
74923;HTU21D;64715;44.760;37.678;2023-02-08T05:56:49;-6.23;79.87
74923;HTU21D;64715;44.760;37.678;2023-02-08T05:57:50;-6.22;79.80
74923;HTU21D;64715;44.760;37.678;2023-02-08T06:01:16;-6.24;79.49
74923;HTU21D;64715;44.760;37.678;2023-02-08T06:04:43;-6.30;79.67
74923;HTU21D;64715;44.760;37.678;2023-02-08T06:08:31;-6.34;79.78
74923;HTU21D;64715;44.760;37.678;2023-02-08T06:09:33;-6.32;79.96
74923;HTU21D;64715;44.760;37.678;2023-02-08T06:12:49;-6.34;80.06
74923;HTU21D;64715;44.760;37.678;2023-02-08T06:16:31;-6.34;80.28
74923;HTU21D;64715;44.760;37.678;2023-02-08T06:17:32;-6.35;80.07
74923;HTU21D;64715;44.760;37.678;2023-02-08T06:18:33;-6.35;80.39
74923;HTU21D;64715;44.760;37.678;2023-02-08T06:22:16;-6.39;79.99
74923;HTU21D;64715;44.760;37.678;2023-02-08T06:23:17;-6.41;80.02
74923;HTU21D;64715;44.760;37.678;2023-02-08T06:24:18;-6.39;80.19
74923;HTU21D;64715;44.760;37.678;2023-02-08T06:25:19;-6.41;79.83
74923;HTU21D;64715;44.760;37.678;2023-02-08T06:29:01;-6.36;80.10
74923;HTU21D;64715;44.760;37.678;2023-02-08T06:32:57;-6.41;79.85
74923;HTU21D;64715;44.760;37.678;2023-02-08T06:33:58;-6.38;79.97
74923;HTU21D;64715;44.760;37.678;2023-02-08T06:35:00;-6.42;80.04
74923;HTU21D;64715;44.760;37.678;2023-02-08T06:36:01;-6.43;80.14
74923;HTU21D;64715;44.760;37.678;2023-02-08T06:37:11;-6.39;80.04
74923;HTU21D;64715;44.760;37.678;2023-02-08T06:38:13;-6.39;79.98
74923;HTU21D;64715;44.760;37.678;2023-02-08T06:39:14;-6.38;79.62
74923;HTU21D;64715;44.760;37.678;2023-02-08T06:40:15;-6.37;79.95
74923;HTU21D;64715;44.760;37.678;2023-02-08T06:41:17;-6.34;79.85
74923;HTU21D;64715;44.760;37.678;2023-02-08T06:42:18;-6.36;80.06
74923;HTU21D;64715;44.760;37.678;2023-02-08T06:43:19;-6.33;79.92
74923;HTU21D;64715;44.760;37.678;2023-02-08T06:44:20;-6.30;79.66
74923;HTU21D;64715;44.760;37.678;2023-02-08T06:45:24;-6.30;79.59
74923;HTU21D;64715;44.760;37.678;2023-02-08T06:46:26;-6.27;79.76
74923;HTU21D;64715;44.760;37.678;2023-02-08T06:47:27;-6.26;79.91
74923;HTU21D;64715;44.760;37.678;2023-02-08T06:48:28;-6.24;79.75
74923;HTU21D;64715;44.760;37.678;2023-02-08T06:49:30;-6.24;79.61
74923;HTU21D;64715;44.760;37.678;2023-02-08T06:50:31;-6.23;79.56
74923;HTU21D;64715;44.760;37.678;2023-02-08T06:53:39;-6.24;78.87
74923;HTU21D;64715;44.760;37.678;2023-02-08T06:54:40;-6.23;78.58
74923;HTU21D;64715;44.760;37.678;2023-02-08T06:55:41;-6.24;78.58
74923;HTU21D;64715;44.760;37.678;2023-02-08T06:56:42;-6.28;78.72
74923;HTU21D;64715;44.760;37.678;2023-02-08T06:57:45;-6.29;78.56
74923;HTU21D;64715;44.760;37.678;2023-02-08T06:58:46;-6.29;78.79
74923;HTU21D;64715;44.760;37.678;2023-02-08T06:59:47;-6.30;78.88
74923;HTU21D;64715;44.760;37.678;2023-02-08T07:00:48;-6.27;78.72
74923;HTU21D;64715;44.760;37.678;2023-02-08T07:01:49;-6.28;78.91
74923;HTU21D;64715;44.760;37.678;2023-02-08T07:02:50;-6.26;79.01
74923;HTU21D;64715;44.760;37.678;2023-02-08T07:03:52;-6.23;78.83
74923;HTU21D;64715;44.760;37.678;2023-02-08T07:07:21;-6.23;78.82
74923;HTU21D;64715;44.760;37.678;2023-02-08T07:08:22;-6.23;78.37
74923;HTU21D;64715;44.760;37.678;2023-02-08T07:09:23;-6.26;78.33
74923;HTU21D;64715;44.760;37.678;2023-02-08T07:10:24;-6.30;78.26
74923;HTU21D;64715;44.760;37.678;2023-02-08T07:11:25;-6.30;78.77
74923;HTU21D;64715;44.760;37.678;2023-02-08T07:12:26;-6.32;78.68
74923;HTU21D;64715;44.760;37.678;2023-02-08T07:13:27;-6.31;79.04
74923;HTU21D;64715;44.760;37.678;2023-02-08T07:30:42;-5.34;75.99
74923;HTU21D;64715;44.760;37.678;2023-02-08T07:31:45;-5.38;75.33
74923;HTU21D;64715;44.760;37.678;2023-02-08T07:32:46;-5.41;75.53
74923;HTU21D;64715;44.760;37.678;2023-02-08T07:33:47;-5.46;75.56
74923;HTU21D;64715;44.760;37.678;2023-02-08T07:34:49;-5.48;75.82
74923;HTU21D;64715;44.760;37.678;2023-02-08T07:35:50;-5.53;75.83
74923;HTU21D;64715;44.760;37.678;2023-02-08T07:36:51;-5.56;75.83
74923;HTU21D;64715;44.760;37.678;2023-02-08T07:37:52;-5.58;75.86
74923;HTU21D;64715;44.760;37.678;2023-02-08T07:38:53;-5.62;76.03
74923;HTU21D;64715;44.760;37.678;2023-02-08T07:39:54;-5.67;76.04
74923;HTU21D;64715;44.760;37.678;2023-02-08T07:41:00;-5.69;75.88
74923;HTU21D;64715;44.760;37.678;2023-02-08T07:42:01;-5.75;75.98
74923;HTU21D;64715;44.760;37.678;2023-02-08T07:43:08;-5.78;76.14
74923;HTU21D;64715;44.760;37.678;2023-02-08T07:44:18;-5.84;76.18
74923;HTU21D;64715;44.760;37.678;2023-02-08T07:45:19;-5.85;76.62
74923;HTU21D;64715;44.760;37.678;2023-02-08T07:46:20;-5.87;76.82
74923;HTU21D;64715;44.760;37.678;2023-02-08T07:47:21;-5.85;76.60
74923;HTU21D;64715;44.760;37.678;2023-02-08T07:48:22;-5.89;76.65
74923;HTU21D;64715;44.760;37.678;2023-02-08T07:49:23;-5.91;76.82
74923;HTU21D;64715;44.760;37.678;2023-02-08T07:50:24;-5.91;76.63
74923;HTU21D;64715;44.760;37.678;2023-02-08T07:51:25;-5.96;76.69
74923;HTU21D;64715;44.760;37.678;2023-02-08T07:52:26;-5.94;76.92
74923;HTU21D;64715;44.760;37.678;2023-02-08T07:53:27;-5.96;76.66
74923;HTU21D;64715;44.760;37.678;2023-02-08T07:54:29;-5.97;76.64
74923;HTU21D;64715;44.760;37.678;2023-02-08T07:55:30;-5.98;76.82
74923;HTU21D;64715;44.760;37.678;2023-02-08T07:56:31;-5.99;76.86
74923;HTU21D;64715;44.760;37.678;2023-02-08T07:57:32;-6.02;76.93
74923;HTU21D;64715;44.760;37.678;2023-02-08T07:58:33;-6.02;77.25
74923;HTU21D;64715;44.760;37.678;2023-02-08T07:59:34;-6.03;76.91
74923;HTU21D;64715;44.760;37.678;2023-02-08T08:00:36;-6.05;77.18
74923;HTU21D;64715;44.760;37.678;2023-02-08T08:01:37;-6.03;76.94
74923;HTU21D;64715;44.760;37.678;2023-02-08T08:02:38;-6.03;77.34
74923;HTU21D;64715;44.760;37.678;2023-02-08T08:03:39;-6.03;77.18
74923;HTU21D;64715;44.760;37.678;2023-02-08T08:04:41;-6.01;76.88
74923;HTU21D;64715;44.760;37.678;2023-02-08T08:05:42;-6.03;77.27
74923;HTU21D;64715;44.760;37.678;2023-02-08T08:06:43;-6.03;77.29
74923;HTU21D;64715;44.760;37.678;2023-02-08T08:07:46;-6.01;76.79
74923;HTU21D;64715;44.760;37.678;2023-02-08T08:08:47;-6.01;76.79
74923;HTU21D;64715;44.760;37.678;2023-02-08T08:09:48;-6.02;76.64
74923;HTU21D;64715;44.760;37.678;2023-02-08T08:10:49;-6.01;76.65
74923;HTU21D;64715;44.760;37.678;2023-02-08T08:12:01;-6.02;76.53
74923;HTU21D;64715;44.760;37.678;2023-02-08T08:13:06;-6.04;76.64
74923;HTU21D;64715;44.760;37.678;2023-02-08T08:14:16;-6.05;76.79
74923;HTU21D;64715;44.760;37.678;2023-02-08T08:15:17;-6.04;76.91
74923;HTU21D;64715;44.760;37.678;2023-02-08T08:16:18;-6.01;77.42
74923;HTU21D;64715;44.760;37.678;2023-02-08T08:17:20;-6.05;77.48
74923;HTU21D;64715;44.760;37.678;2023-02-08T08:18:23;-6.03;77.13
74923;HTU21D;64715;44.760;37.678;2023-02-08T08:19:24;-6.02;77.19
74923;HTU21D;64715;44.760;37.678;2023-02-08T08:20:34;-6.02;76.53
74923;HTU21D;64715;44.760;37.678;2023-02-08T08:21:35;-6.01;76.70
74923;HTU21D;64715;44.760;37.678;2023-02-08T08:22:46;-6.02;76.38
74923;HTU21D;64715;44.760;37.678;2023-02-08T08:23:47;-6.03;76.70
74923;HTU21D;64715;44.760;37.678;2023-02-08T08:24:48;-6.05;76.91
74923;HTU21D;64715;44.760;37.678;2023-02-08T08:25:52;-6.05;76.89
74923;HTU21D;64715;44.760;37.678;2023-02-08T08:26:53;-6.05;76.79
74923;HTU21D;64715;44.760;37.678;2023-02-08T08:27:57;-6.05;76.82
74923;HTU21D;64715;44.760;37.678;2023-02-08T08:29:03;-6.05;76.79
74923;HTU21D;64715;44.760;37.678;2023-02-08T08:30:16;-6.04;76.93
74923;HTU21D;64715;44.760;37.678;2023-02-08T08:31:25;-6.01;77.11
74923;HTU21D;64715;44.760;37.678;2023-02-08T08:35:30;-6.08;76.47
74923;HTU21D;64715;44.760;37.678;2023-02-08T08:37:08;-6.12;77.15
74923;HTU21D;64715;44.760;37.678;2023-02-08T08:41:47;-6.17;77.22
74923;HTU21D;64715;44.760;37.678;2023-02-08T08:46:32;-6.18;77.15
74923;HTU21D;64715;44.760;37.678;2023-02-08T08:51:02;-6.21;77.70
74923;HTU21D;64715;44.760;37.678;2023-02-08T08:53:00;-6.21;77.66
74923;HTU21D;64715;44.760;37.678;2023-02-08T08:54:02;-6.20;77.74
74923;HTU21D;64715;44.760;37.678;2023-02-08T08:55:05;-6.19;78.30
74923;HTU21D;64715;44.760;37.678;2023-02-08T08:56:06;-6.16;78.33
74923;HTU21D;64715;44.760;37.678;2023-02-08T08:57:07;-6.13;78.58
74923;HTU21D;64715;44.760;37.678;2023-02-08T08:58:08;-6.09;78.85
74923;HTU21D;64715;44.760;37.678;2023-02-08T08:59:10;-6.06;78.76